sensor_id;sensor_type;location;lat;lon;timestamp;P1;durP1;ratioP1;P2;durP2;ratioP2
66542;SDS011;53395;37.360;-122.046;2022-07-23T00:00:35;12.18;;;5.70;;
66542;SDS011;53395;37.360;-122.046;2022-07-23T00:03:01;12.00;;;5.28;;
66542;SDS011;53395;37.360;-122.046;2022-07-23T00:05:27;11.60;;;6.40;;
66542;SDS011;53395;37.360;-122.046;2022-07-23T00:07:54;14.65;;;8.00;;
66542;SDS011;53395;37.360;-122.046;2022-07-23T00:10:20;10.30;;;5.18;;
66542;SDS011;53395;37.360;-122.046;2022-07-23T00:12:46;13.52;;;6.57;;
66542;SDS011;53395;37.360;-122.046;2022-07-23T00:15:12;13.32;;;5.70;;
66542;SDS011;53395;37.360;-122.046;2022-07-23T00:17:39;11.95;;;5.65;;
66542;SDS011;53395;37.360;-122.046;2022-07-23T00:20:05;14.88;;;5.68;;
66542;SDS011;53395;37.360;-122.046;2022-07-23T00:22:34;14.27;;;5.15;;
66542;SDS011;53395;37.360;-122.046;2022-07-23T00:25:01;10.77;;;5.10;;
66542;SDS011;53395;37.360;-122.046;2022-07-23T00:27:27;13.70;;;5.72;;
66542;SDS011;53395;37.360;-122.046;2022-07-23T00:29:53;13.60;;;7.25;;
66542;SDS011;53395;37.360;-122.046;2022-07-23T00:32:20;14.27;;;6.45;;
66542;SDS011;53395;37.360;-122.046;2022-07-23T00:34:46;14.65;;;6.18;;
66542;SDS011;53395;37.360;-122.046;2022-07-23T00:37:12;14.82;;;5.80;;
66542;SDS011;53395;37.360;-122.046;2022-07-23T00:39:41;13.25;;;5.50;;
66542;SDS011;53395;37.360;-122.046;2022-07-23T00:42:10;15.55;;;5.60;;
66542;SDS011;53395;37.360;-122.046;2022-07-23T00:44:39;13.88;;;6.03;;
66542;SDS011;53395;37.360;-122.046;2022-07-23T00:47:05;13.30;;;5.75;;
66542;SDS011;53395;37.360;-122.046;2022-07-23T00:49:31;10.48;;;4.15;;
66542;SDS011;53395;37.360;-122.046;2022-07-23T00:51:58;16.10;;;6.60;;
66542;SDS011;53395;37.360;-122.046;2022-07-23T00:54:27;18.08;;;6.10;;
66542;SDS011;53395;37.360;-122.046;2022-07-23T00:56:54;11.50;;;5.43;;
66542;SDS011;53395;37.360;-122.046;2022-07-23T00:59:20;15.73;;;5.32;;
66542;SDS011;53395;37.360;-122.046;2022-07-23T01:01:47;14.73;;;5.63;;
66542;SDS011;53395;37.360;-122.046;2022-07-23T01:04:14;17.23;;;5.97;;
66542;SDS011;53395;37.360;-122.046;2022-07-23T01:06:41;12.63;;;6.65;;
66542;SDS011;53395;37.360;-122.046;2022-07-23T01:09:09;10.98;;;5.20;;
66542;SDS011;53395;37.360;-122.046;2022-07-23T01:11:36;14.15;;;6.10;;
66542;SDS011;53395;37.360;-122.046;2022-07-23T01:14:12;14.25;;;6.95;;
66542;SDS011;53395;37.360;-122.046;2022-07-23T01:16:41;14.55;;;6.38;;
66542;SDS011;53395;37.360;-122.046;2022-07-23T01:19:09;13.75;;;6.85;;
66542;SDS011;53395;37.360;-122.046;2022-07-23T01:21:43;14.23;;;6.45;;
66542;SDS011;53395;37.360;-122.046;2022-07-23T01:24:11;9.65;;;5.45;;
66542;SDS011;53395;37.360;-122.046;2022-07-23T01:26:39;12.88;;;6.03;;
66542;SDS011;53395;37.360;-122.046;2022-07-23T01:29:12;11.05;;;5.15;;
66542;SDS011;53395;37.360;-122.046;2022-07-23T01:31:39;13.50;;;5.80;;
66542;SDS011;53395;37.360;-122.046;2022-07-23T01:34:05;10.63;;;5.88;;
66542;SDS011;53395;37.360;-122.046;2022-07-23T01:36:32;12.35;;;6.40;;
66542;SDS011;53395;37.360;-122.046;2022-07-23T01:39:00;17.35;;;6.35;;
66542;SDS011;53395;37.360;-122.046;2022-07-23T01:41:26;12.23;;;7.18;;
66542;SDS011;53395;37.360;-122.046;2022-07-23T01:43:52;13.73;;;6.45;;
66542;SDS011;53395;37.360;-122.046;2022-07-23T01:46:19;10.45;;;5.47;;
66542;SDS011;53395;37.360;-122.046;2022-07-23T01:51:11;10.82;;;5.38;;
66542;SDS011;53395;37.360;-122.046;2022-07-23T01:56:03;17.73;;;5.32;;
66542;SDS011;53395;37.360;-122.046;2022-07-23T01:58:29;12.75;;;5.90;;
66542;SDS011;53395;37.360;-122.046;2022-07-23T02:00:56;15.73;;;6.05;;
66542;SDS011;53395;37.360;-122.046;2022-07-23T02:03:22;12.68;;;5.07;;
66542;SDS011;53395;37.360;-122.046;2022-07-23T02:05:49;10.68;;;5.47;;
66542;SDS011;53395;37.360;-122.046;2022-07-23T02:08:16;12.93;;;6.35;;
66542;SDS011;53395;37.360;-122.046;2022-07-23T02:10:43;12.02;;;6.10;;
66542;SDS011;53395;37.360;-122.046;2022-07-23T02:13:10;15.93;;;5.80;;
66542;SDS011;53395;37.360;-122.046;2022-07-23T02:15:37;14.30;;;5.38;;
66542;SDS011;53395;37.360;-122.046;2022-07-23T02:18:03;13.52;;;5.85;;
66542;SDS011;53395;37.360;-122.046;2022-07-23T02:20:30;14.13;;;5.25;;
66542;SDS011;53395;37.360;-122.046;2022-07-23T02:22:56;11.57;;;4.60;;
66542;SDS011;53395;37.360;-122.046;2022-07-23T02:25:22;12.70;;;5.22;;
66542;SDS011;53395;37.360;-122.046;2022-07-23T02:27:48;11.27;;;6.10;;
66542;SDS011;53395;37.360;-122.046;2022-07-23T02:32:40;11.00;;;5.13;;
66542;SDS011;53395;37.360;-122.046;2022-07-23T02:37:33;16.13;;;4.45;;
66542;SDS011;53395;37.360;-122.046;2022-07-23T02:39:59;12.80;;;5.75;;
66542;SDS011;53395;37.360;-122.046;2022-07-23T02:44:51;7.15;;;4.68;;
66542;SDS011;53395;37.360;-122.046;2022-07-23T02:47:17;10.13;;;5.40;;
66542;SDS011;53395;37.360;-122.046;2022-07-23T02:52:10;10.40;;;5.90;;
66542;SDS011;53395;37.360;-122.046;2022-07-23T02:54:36;9.18;;;4.72;;
66542;SDS011;53395;37.360;-122.046;2022-07-23T02:57:03;13.07;;;5.10;;
66542;SDS011;53395;37.360;-122.046;2022-07-23T02:59:30;10.27;;;4.70;;
66542;SDS011;53395;37.360;-122.046;2022-07-23T03:01:56;8.13;;;4.47;;
66542;SDS011;53395;37.360;-122.046;2022-07-23T03:06:48;11.00;;;4.90;;
66542;SDS011;53395;37.360;-122.046;2022-07-23T03:09:14;13.65;;;5.50;;
66542;SDS011;53395;37.360;-122.046;2022-07-23T03:14:06;15.73;;;5.53;;
66542;SDS011;53395;37.360;-122.046;2022-07-23T03:16:33;14.07;;;6.50;;
66542;SDS011;53395;37.360;-122.046;2022-07-23T03:21:25;12.35;;;6.88;;
66542;SDS011;53395;37.360;-122.046;2022-07-23T03:23:51;14.65;;;8.18;;
66542;SDS011;53395;37.360;-122.046;2022-07-23T03:28:44;16.80;;;7.90;;
66542;SDS011;53395;37.360;-122.046;2022-07-23T03:31:10;15.18;;;8.13;;
66542;SDS011;53395;37.360;-122.046;2022-07-23T03:33:38;11.25;;;7.72;;
66542;SDS011;53395;37.360;-122.046;2022-07-23T03:38:30;11.20;;;7.25;;
66542;SDS011;53395;37.360;-122.046;2022-07-23T03:43:22;13.32;;;8.45;;
66542;SDS011;53395;37.360;-122.046;2022-07-23T03:45:51;13.32;;;8.20;;
66542;SDS011;53395;37.360;-122.046;2022-07-23T03:48:17;13.15;;;10.63;;
66542;SDS011;53395;37.360;-122.046;2022-07-23T03:50:43;16.05;;;8.15;;
66542;SDS011;53395;37.360;-122.046;2022-07-23T03:55:35;22.65;;;7.93;;
66542;SDS011;53395;37.360;-122.046;2022-07-23T04:00:28;13.60;;;7.60;;
66542;SDS011;53395;37.360;-122.046;2022-07-23T04:05:20;15.63;;;7.90;;
66542;SDS011;53395;37.360;-122.046;2022-07-23T04:10:12;15.98;;;8.02;;
66542;SDS011;53395;37.360;-122.046;2022-07-23T04:15:04;15.13;;;7.35;;
66542;SDS011;53395;37.360;-122.046;2022-07-23T04:17:33;17.88;;;9.13;;
66542;SDS011;53395;37.360;-122.046;2022-07-23T04:22:25;19.52;;;8.15;;
66542;SDS011;53395;37.360;-122.046;2022-07-23T04:24:51;12.75;;;8.20;;
66542;SDS011;53395;37.360;-122.046;2022-07-23T04:27:18;15.02;;;9.13;;
66542;SDS011;53395;37.360;-122.046;2022-07-23T04:29:44;17.48;;;9.13;;
66542;SDS011;53395;37.360;-122.046;2022-07-23T04:32:11;17.92;;;8.38;;
66542;SDS011;53395;37.360;-122.046;2022-07-23T04:34:37;22.35;;;8.85;;
66542;SDS011;53395;37.360;-122.046;2022-07-23T04:37:03;17.73;;;8.90;;
66542;SDS011;53395;37.360;-122.046;2022-07-23T04:39:30;19.08;;;9.82;;
66542;SDS011;53395;37.360;-122.046;2022-07-23T04:41:56;14.10;;;9.27;;
66542;SDS011;53395;37.360;-122.046;2022-07-23T04:44:22;19.15;;;10.20;;
66542;SDS011;53395;37.360;-122.046;2022-07-23T04:46:48;16.52;;;9.32;;
66542;SDS011;53395;37.360;-122.046;2022-07-23T04:49:14;14.45;;;9.10;;
66542;SDS011;53395;37.360;-122.046;2022-07-23T04:51:41;21.42;;;10.63;;
66542;SDS011;53395;37.360;-122.046;2022-07-23T04:54:07;17.23;;;9.95;;
66542;SDS011;53395;37.360;-122.046;2022-07-23T04:56:33;18.40;;;11.10;;
66542;SDS011;53395;37.360;-122.046;2022-07-23T04:58:59;16.20;;;10.05;;
66542;SDS011;53395;37.360;-122.046;2022-07-23T05:01:25;17.75;;;10.02;;
66542;SDS011;53395;37.360;-122.046;2022-07-23T05:03:52;15.18;;;9.95;;
66542;SDS011;53395;37.360;-122.046;2022-07-23T05:08:44;14.10;;;8.30;;
66542;SDS011;53395;37.360;-122.046;2022-07-23T05:11:10;11.57;;;9.50;;
66542;SDS011;53395;37.360;-122.046;2022-07-23T05:13:36;16.42;;;8.30;;
66542;SDS011;53395;37.360;-122.046;2022-07-23T05:16:03;15.73;;;9.57;;
66542;SDS011;53395;37.360;-122.046;2022-07-23T05:18:29;19.48;;;10.38;;
66542;SDS011;53395;37.360;-122.046;2022-07-23T05:20:55;13.02;;;9.80;;
66542;SDS011;53395;37.360;-122.046;2022-07-23T05:23:21;19.67;;;11.80;;
66542;SDS011;53395;37.360;-122.046;2022-07-23T05:28:15;19.08;;;8.95;;
66542;SDS011;53395;37.360;-122.046;2022-07-23T05:30:41;16.90;;;9.35;;
66542;SDS011;53395;37.360;-122.046;2022-07-23T05:33:07;20.00;;;8.32;;
66542;SDS011;53395;37.360;-122.046;2022-07-23T05:37:59;14.20;;;8.40;;
66542;SDS011;53395;37.360;-122.046;2022-07-23T05:40:25;17.70;;;8.90;;
66542;SDS011;53395;37.360;-122.046;2022-07-23T05:42:54;17.50;;;9.13;;
66542;SDS011;53395;37.360;-122.046;2022-07-23T05:45:20;16.48;;;9.77;;
66542;SDS011;53395;37.360;-122.046;2022-07-23T05:50:13;17.20;;;7.40;;
66542;SDS011;53395;37.360;-122.046;2022-07-23T05:52:40;15.10;;;8.70;;
66542;SDS011;53395;37.360;-122.046;2022-07-23T05:55:08;15.32;;;9.02;;
66542;SDS011;53395;37.360;-122.046;2022-07-23T05:57:36;16.33;;;8.70;;
66542;SDS011;53395;37.360;-122.046;2022-07-23T06:00:03;14.15;;;10.35;;
66542;SDS011;53395;37.360;-122.046;2022-07-23T06:02:31;16.98;;;9.93;;
66542;SDS011;53395;37.360;-122.046;2022-07-23T06:07:23;10.85;;;7.60;;
66542;SDS011;53395;37.360;-122.046;2022-07-23T06:09:49;15.85;;;7.75;;
66542;SDS011;53395;37.360;-122.046;2022-07-23T06:14:42;15.82;;;8.20;;
66542;SDS011;53395;37.360;-122.046;2022-07-23T06:17:08;20.30;;;8.35;;
66542;SDS011;53395;37.360;-122.046;2022-07-23T06:19:35;15.38;;;8.70;;
66542;SDS011;53395;37.360;-122.046;2022-07-23T06:22:01;14.18;;;7.70;;
66542;SDS011;53395;37.360;-122.046;2022-07-23T06:24:27;14.40;;;8.30;;
66542;SDS011;53395;37.360;-122.046;2022-07-23T06:26:53;13.75;;;10.35;;
66542;SDS011;53395;37.360;-122.046;2022-07-23T06:29:20;14.45;;;7.93;;
66542;SDS011;53395;37.360;-122.046;2022-07-23T06:31:46;13.75;;;9.23;;
66542;SDS011;53395;37.360;-122.046;2022-07-23T06:34:12;16.05;;;10.75;;
66542;SDS011;53395;37.360;-122.046;2022-07-23T06:36:38;15.95;;;10.20;;
66542;SDS011;53395;37.360;-122.046;2022-07-23T06:39:04;15.77;;;8.93;;
66542;SDS011;53395;37.360;-122.046;2022-07-23T06:43:57;17.10;;;7.55;;
66542;SDS011;53395;37.360;-122.046;2022-07-23T06:46:23;16.02;;;9.32;;
66542;SDS011;53395;37.360;-122.046;2022-07-23T06:48:50;15.85;;;8.40;;
66542;SDS011;53395;37.360;-122.046;2022-07-23T06:53:44;19.02;;;9.25;;
66542;SDS011;53395;37.360;-122.046;2022-07-23T06:56:11;15.80;;;8.77;;
66542;SDS011;53395;37.360;-122.046;2022-07-23T06:58:37;14.20;;;8.98;;
66542;SDS011;53395;37.360;-122.046;2022-07-23T07:01:03;19.60;;;8.90;;
66542;SDS011;53395;37.360;-122.046;2022-07-23T07:05:56;17.15;;;8.57;;
66542;SDS011;53395;37.360;-122.046;2022-07-23T07:08:23;15.18;;;8.70;;
66542;SDS011;53395;37.360;-122.046;2022-07-23T07:10:49;20.60;;;11.15;;
66542;SDS011;53395;37.360;-122.046;2022-07-23T07:15:41;17.13;;;7.95;;
66542;SDS011;53395;37.360;-122.046;2022-07-23T07:18:07;19.38;;;8.88;;
66542;SDS011;53395;37.360;-122.046;2022-07-23T07:20:34;18.27;;;9.48;;
66542;SDS011;53395;37.360;-122.046;2022-07-23T07:23:00;17.90;;;9.70;;
66542;SDS011;53395;37.360;-122.046;2022-07-23T07:25:26;14.73;;;10.35;;
66542;SDS011;53395;37.360;-122.046;2022-07-23T07:30:18;16.40;;;8.85;;
66542;SDS011;53395;37.360;-122.046;2022-07-23T07:35:11;12.77;;;11.13;;
66542;SDS011;53395;37.360;-122.046;2022-07-23T07:37:37;14.13;;;8.90;;
66542;SDS011;53395;37.360;-122.046;2022-07-23T07:40:03;16.45;;;9.50;;
66542;SDS011;53395;37.360;-122.046;2022-07-23T07:42:30;15.65;;;10.70;;
66542;SDS011;53395;37.360;-122.046;2022-07-23T07:44:57;16.45;;;9.07;;
66542;SDS011;53395;37.360;-122.046;2022-07-23T07:47:24;12.77;;;10.13;;
66542;SDS011;53395;37.360;-122.046;2022-07-23T07:49:50;16.40;;;9.77;;
66542;SDS011;53395;37.360;-122.046;2022-07-23T07:52:16;18.77;;;11.45;;
66542;SDS011;53395;37.360;-122.046;2022-07-23T07:54:42;20.60;;;12.82;;
66542;SDS011;53395;37.360;-122.046;2022-07-23T07:59:35;18.95;;;9.15;;
66542;SDS011;53395;37.360;-122.046;2022-07-23T08:02:01;16.38;;;9.07;;
66542;SDS011;53395;37.360;-122.046;2022-07-23T08:04:27;16.50;;;11.80;;
66542;SDS011;53395;37.360;-122.046;2022-07-23T08:06:53;18.92;;;11.43;;
66542;SDS011;53395;37.360;-122.046;2022-07-23T08:09:20;17.45;;;9.02;;
66542;SDS011;53395;37.360;-122.046;2022-07-23T08:11:46;16.65;;;10.25;;
66542;SDS011;53395;37.360;-122.046;2022-07-23T08:14:12;16.38;;;8.93;;
66542;SDS011;53395;37.360;-122.046;2022-07-23T08:19:04;17.80;;;8.52;;
66542;SDS011;53395;37.360;-122.046;2022-07-23T08:21:31;17.50;;;10.45;;
66542;SDS011;53395;37.360;-122.046;2022-07-23T08:23:57;14.27;;;8.95;;
66542;SDS011;53395;37.360;-122.046;2022-07-23T08:26:23;18.92;;;12.00;;
66542;SDS011;53395;37.360;-122.046;2022-07-23T08:31:16;14.85;;;7.82;;
66542;SDS011;53395;37.360;-122.046;2022-07-23T08:33:42;15.43;;;10.07;;
66542;SDS011;53395;37.360;-122.046;2022-07-23T08:36:09;19.13;;;9.60;;
66542;SDS011;53395;37.360;-122.046;2022-07-23T08:38:35;14.65;;;9.55;;
66542;SDS011;53395;37.360;-122.046;2022-07-23T08:41:01;16.08;;;10.85;;
66542;SDS011;53395;37.360;-122.046;2022-07-23T08:43:30;16.88;;;10.02;;
66542;SDS011;53395;37.360;-122.046;2022-07-23T08:45:58;17.23;;;9.63;;
66542;SDS011;53395;37.360;-122.046;2022-07-23T08:48:27;13.30;;;9.40;;
66542;SDS011;53395;37.360;-122.046;2022-07-23T08:50:56;16.33;;;8.98;;
66542;SDS011;53395;37.360;-122.046;2022-07-23T08:53:25;16.20;;;9.10;;
66542;SDS011;53395;37.360;-122.046;2022-07-23T08:55:53;15.52;;;8.60;;
66542;SDS011;53395;37.360;-122.046;2022-07-23T08:58:21;17.63;;;11.63;;
66542;SDS011;53395;37.360;-122.046;2022-07-23T09:00:48;17.20;;;9.90;;
66542;SDS011;53395;37.360;-122.046;2022-07-23T09:05:42;14.50;;;8.48;;
66542;SDS011;53395;37.360;-122.046;2022-07-23T09:10:43;14.73;;;8.70;;
66542;SDS011;53395;37.360;-122.046;2022-07-23T09:13:32;15.60;;;9.07;;
66542;SDS011;53395;37.360;-122.046;2022-07-23T09:16:08;19.63;;;11.50;;
66542;SDS011;53395;37.360;-122.046;2022-07-23T09:18:44;15.75;;;8.93;;
66542;SDS011;53395;37.360;-122.046;2022-07-23T09:23:54;17.08;;;10.05;;
66542;SDS011;53395;37.360;-122.046;2022-07-23T09:26:30;17.40;;;10.18;;
66542;SDS011;53395;37.360;-122.046;2022-07-23T09:31:32;13.63;;;8.95;;
66542;SDS011;53395;37.360;-122.046;2022-07-23T09:34:10;17.98;;;9.98;;
66542;SDS011;53395;37.360;-122.046;2022-07-23T09:36:38;22.67;;;9.65;;
66542;SDS011;53395;37.360;-122.046;2022-07-23T09:39:05;14.93;;;9.65;;
66542;SDS011;53395;37.360;-122.046;2022-07-23T09:41:37;19.70;;;9.68;;
66542;SDS011;53395;37.360;-122.046;2022-07-23T09:44:09;14.60;;;9.75;;
66542;SDS011;53395;37.360;-122.046;2022-07-23T09:46:36;12.80;;;8.48;;
66542;SDS011;53395;37.360;-122.046;2022-07-23T09:49:38;16.05;;;8.90;;
66542;SDS011;53395;37.360;-122.046;2022-07-23T09:51:58;20.35;;;9.52;;
66542;SDS011;53395;37.360;-122.046;2022-07-23T09:54:27;16.35;;;9.57;;
66542;SDS011;53395;37.360;-122.046;2022-07-23T09:56:58;24.58;;;9.75;;
66542;SDS011;53395;37.360;-122.046;2022-07-23T09:59:31;14.55;;;8.10;;
66542;SDS011;53395;37.360;-122.046;2022-07-23T10:02:00;19.00;;;10.02;;
66542;SDS011;53395;37.360;-122.046;2022-07-23T10:04:28;21.92;;;9.98;;
66542;SDS011;53395;37.360;-122.046;2022-07-23T10:06:59;15.15;;;9.60;;
66542;SDS011;53395;37.360;-122.046;2022-07-23T10:09:31;14.65;;;10.00;;
66542;SDS011;53395;37.360;-122.046;2022-07-23T10:12:00;18.55;;;9.55;;
66542;SDS011;53395;37.360;-122.046;2022-07-23T10:14:33;22.73;;;9.45;;
66542;SDS011;53395;37.360;-122.046;2022-07-23T10:17:00;19.02;;;9.68;;
66542;SDS011;53395;37.360;-122.046;2022-07-23T10:19:28;18.15;;;11.43;;
66542;SDS011;53395;37.360;-122.046;2022-07-23T10:27:23;17.40;;;7.85;;
66542;SDS011;53395;37.360;-122.046;2022-07-23T10:30:03;18.83;;;8.38;;
66542;SDS011;53395;37.360;-122.046;2022-07-23T10:38:30;21.70;;;9.25;;
66542;SDS011;53395;37.360;-122.046;2022-07-23T10:41:02;20.48;;;8.57;;
66542;SDS011;53395;37.360;-122.046;2022-07-23T10:43:29;16.65;;;8.95;;
66542;SDS011;53395;37.360;-122.046;2022-07-23T10:46:42;22.15;;;9.07;;
66542;SDS011;53395;37.360;-122.046;2022-07-23T10:51:35;19.27;;;7.32;;
66542;SDS011;53395;37.360;-122.046;2022-07-23T10:54:01;17.90;;;8.23;;
66542;SDS011;53395;37.360;-122.046;2022-07-23T10:59:24;18.42;;;7.00;;
66542;SDS011;53395;37.360;-122.046;2022-07-23T11:01:50;19.73;;;8.70;;
66542;SDS011;53395;37.360;-122.046;2022-07-23T11:04:17;15.50;;;6.55;;
66542;SDS011;53395;37.360;-122.046;2022-07-23T11:09:28;22.02;;;7.93;;
66542;SDS011;53395;37.360;-122.046;2022-07-23T11:17:27;16.85;;;7.28;;
66542;SDS011;53395;37.360;-122.046;2022-07-23T11:25:10;18.73;;;6.32;;
66542;SDS011;53395;37.360;-122.046;2022-07-23T11:27:38;23.67;;;7.03;;
66542;SDS011;53395;37.360;-122.046;2022-07-23T11:30:10;16.45;;;6.05;;
66542;SDS011;53395;37.360;-122.046;2022-07-23T11:35:35;15.40;;;6.85;;
66542;SDS011;53395;37.360;-122.046;2022-07-23T11:38:13;20.00;;;6.57;;
66542;SDS011;53395;37.360;-122.046;2022-07-23T11:40:41;15.65;;;5.72;;
66542;SDS011;53395;37.360;-122.046;2022-07-23T11:43:10;14.43;;;5.50;;
66542;SDS011;53395;37.360;-122.046;2022-07-23T11:45:39;12.20;;;5.05;;
66542;SDS011;53395;37.360;-122.046;2022-07-23T11:48:16;11.73;;;5.85;;
66542;SDS011;53395;37.360;-122.046;2022-07-23T11:50:47;16.80;;;5.72;;
66542;SDS011;53395;37.360;-122.046;2022-07-23T11:53:30;15.13;;;5.50;;
66542;SDS011;53395;37.360;-122.046;2022-07-23T11:56:08;12.25;;;6.05;;
66542;SDS011;53395;37.360;-122.046;2022-07-23T11:58:37;13.27;;;4.68;;
66542;SDS011;53395;37.360;-122.046;2022-07-23T12:01:04;12.93;;;5.55;;
66542;SDS011;53395;37.360;-122.046;2022-07-23T12:03:30;16.15;;;5.35;;
66542;SDS011;53395;37.360;-122.046;2022-07-23T12:05:58;10.18;;;4.47;;
66542;SDS011;53395;37.360;-122.046;2022-07-23T12:08:25;12.73;;;4.88;;
66542;SDS011;53395;37.360;-122.046;2022-07-23T12:13:18;14.57;;;5.20;;
66542;SDS011;53395;37.360;-122.046;2022-07-23T12:15:48;11.07;;;4.68;;
66542;SDS011;53395;37.360;-122.046;2022-07-23T12:18:17;13.52;;;4.55;;
66542;SDS011;53395;37.360;-122.046;2022-07-23T12:20:54;10.98;;;5.20;;
66542;SDS011;53395;37.360;-122.046;2022-07-23T12:23:23;12.50;;;4.80;;
66542;SDS011;53395;37.360;-122.046;2022-07-23T12:25:51;11.85;;;5.03;;
66542;SDS011;53395;37.360;-122.046;2022-07-23T12:28:26;14.38;;;4.90;;
66542;SDS011;53395;37.360;-122.046;2022-07-23T12:30:54;11.52;;;4.75;;
66542;SDS011;53395;37.360;-122.046;2022-07-23T12:35:49;7.60;;;4.43;;
66542;SDS011;53395;37.360;-122.046;2022-07-23T12:38:17;12.52;;;6.22;;
66542;SDS011;53395;37.360;-122.046;2022-07-23T12:45:57;9.90;;;4.28;;
66542;SDS011;53395;37.360;-122.046;2022-07-23T12:48:35;10.02;;;3.80;;
66542;SDS011;53395;37.360;-122.046;2022-07-23T12:51:06;14.35;;;4.75;;
66542;SDS011;53395;37.360;-122.046;2022-07-23T12:56:18;15.48;;;4.53;;
66542;SDS011;53395;37.360;-122.046;2022-07-23T12:58:48;9.52;;;3.95;;
66542;SDS011;53395;37.360;-122.046;2022-07-23T13:03:55;10.63;;;5.35;;
66542;SDS011;53395;37.360;-122.046;2022-07-23T13:06:22;14.75;;;5.68;;
66542;SDS011;53395;37.360;-122.046;2022-07-23T13:11:14;9.48;;;3.85;;
66542;SDS011;53395;37.360;-122.046;2022-07-23T13:13:41;9.65;;;4.28;;
66542;SDS011;53395;37.360;-122.046;2022-07-23T13:16:07;8.23;;;4.03;;
66542;SDS011;53395;37.360;-122.046;2022-07-23T13:20:59;9.00;;;4.22;;
66542;SDS011;53395;37.360;-122.046;2022-07-23T13:23:26;13.40;;;5.28;;
66542;SDS011;53395;37.360;-122.046;2022-07-23T13:25:52;11.95;;;4.88;;
66542;SDS011;53395;37.360;-122.046;2022-07-23T13:28:19;10.07;;;5.97;;
66542;SDS011;53395;37.360;-122.046;2022-07-23T13:30:47;10.50;;;4.00;;
66542;SDS011;53395;37.360;-122.046;2022-07-23T13:33:22;13.52;;;4.25;;
66542;SDS011;53395;37.360;-122.046;2022-07-23T13:35:50;15.90;;;4.72;;
66542;SDS011;53395;37.360;-122.046;2022-07-23T13:38:18;12.30;;;4.45;;
66542;SDS011;53395;37.360;-122.046;2022-07-23T13:40:46;14.30;;;5.15;;
66542;SDS011;53395;37.360;-122.046;2022-07-23T13:43:15;11.95;;;4.22;;
66542;SDS011;53395;37.360;-122.046;2022-07-23T13:45:43;12.48;;;5.70;;
66542;SDS011;53395;37.360;-122.046;2022-07-23T13:48:10;12.20;;;6.50;;
66542;SDS011;53395;37.360;-122.046;2022-07-23T13:50:38;15.57;;;4.97;;
66542;SDS011;53395;37.360;-122.046;2022-07-23T13:53:06;16.45;;;6.97;;
66542;SDS011;53395;37.360;-122.046;2022-07-23T13:55:35;14.02;;;6.63;;
66542;SDS011;53395;37.360;-122.046;2022-07-23T14:00:28;15.02;;;5.50;;
66542;SDS011;53395;37.360;-122.046;2022-07-23T14:02:56;14.95;;;5.38;;
66542;SDS011;53395;37.360;-122.046;2022-07-23T14:05:23;12.35;;;5.50;;
66542;SDS011;53395;37.360;-122.046;2022-07-23T14:07:49;14.80;;;5.22;;
66542;SDS011;53395;37.360;-122.046;2022-07-23T14:10:17;16.80;;;5.28;;
66542;SDS011;53395;37.360;-122.046;2022-07-23T14:12:45;16.80;;;5.85;;
66542;SDS011;53395;37.360;-122.046;2022-07-23T14:15:12;13.70;;;6.10;;
66542;SDS011;53395;37.360;-122.046;2022-07-23T14:17:40;14.93;;;6.28;;
66542;SDS011;53395;37.360;-122.046;2022-07-23T14:20:08;17.02;;;5.55;;
66542;SDS011;53395;37.360;-122.046;2022-07-23T14:22:36;14.63;;;5.95;;
66542;SDS011;53395;37.360;-122.046;2022-07-23T14:25:03;18.20;;;6.32;;
66542;SDS011;53395;37.360;-122.046;2022-07-23T14:27:30;15.48;;;5.88;;
66542;SDS011;53395;37.360;-122.046;2022-07-23T14:32:23;14.27;;;4.90;;
66542;SDS011;53395;37.360;-122.046;2022-07-23T14:34:49;15.10;;;6.85;;
66542;SDS011;53395;37.360;-122.046;2022-07-23T14:37:16;15.57;;;5.45;;
66542;SDS011;53395;37.360;-122.046;2022-07-23T14:39:43;12.40;;;5.63;;
66542;SDS011;53395;37.360;-122.046;2022-07-23T14:42:10;19.98;;;6.22;;
66542;SDS011;53395;37.360;-122.046;2022-07-23T14:44:37;14.25;;;6.25;;
66542;SDS011;53395;37.360;-122.046;2022-07-23T14:47:04;16.48;;;6.43;;
66542;SDS011;53395;37.360;-122.046;2022-07-23T14:49:31;13.32;;;6.35;;
66542;SDS011;53395;37.360;-122.046;2022-07-23T14:51:58;16.45;;;6.28;;
66542;SDS011;53395;37.360;-122.046;2022-07-23T14:54:25;20.00;;;6.72;;
66542;SDS011;53395;37.360;-122.046;2022-07-23T14:56:53;10.57;;;6.22;;
66542;SDS011;53395;37.360;-122.046;2022-07-23T14:59:20;15.10;;;6.03;;
66542;SDS011;53395;37.360;-122.046;2022-07-23T15:04:13;16.25;;;6.15;;
66542;SDS011;53395;37.360;-122.046;2022-07-23T15:06:39;12.20;;;5.95;;
66542;SDS011;53395;37.360;-122.046;2022-07-23T15:09:06;16.83;;;6.72;;
66542;SDS011;53395;37.360;-122.046;2022-07-23T15:11:32;14.82;;;6.82;;
66542;SDS011;53395;37.360;-122.046;2022-07-23T15:14:08;20.95;;;6.63;;
66542;SDS011;53395;37.360;-122.046;2022-07-23T15:16:35;13.63;;;5.82;;
66542;SDS011;53395;37.360;-122.046;2022-07-23T15:21:28;17.20;;;5.65;;
66542;SDS011;53395;37.360;-122.046;2022-07-23T15:23:55;16.67;;;6.30;;
66542;SDS011;53395;37.360;-122.046;2022-07-23T15:26:26;16.75;;;6.07;;
66542;SDS011;53395;37.360;-122.046;2022-07-23T15:28:53;18.52;;;6.55;;
66542;SDS011;53395;37.360;-122.046;2022-07-23T15:31:19;16.48;;;5.85;;
66542;SDS011;53395;37.360;-122.046;2022-07-23T15:33:46;18.27;;;6.32;;
66542;SDS011;53395;37.360;-122.046;2022-07-23T15:36:12;15.65;;;6.10;;
66542;SDS011;53395;37.360;-122.046;2022-07-23T15:38:41;14.68;;;5.75;;
66542;SDS011;53395;37.360;-122.046;2022-07-23T15:41:07;12.45;;;5.40;;
66542;SDS011;53395;37.360;-122.046;2022-07-23T15:43:34;14.68;;;5.53;;
66542;SDS011;53395;37.360;-122.046;2022-07-23T15:48:27;14.32;;;4.57;;
66542;SDS011;53395;37.360;-122.046;2022-07-23T15:53:20;12.23;;;5.05;;
66542;SDS011;53395;37.360;-122.046;2022-07-23T15:55:51;15.18;;;5.53;;
66542;SDS011;53395;37.360;-122.046;2022-07-23T15:58:17;16.67;;;4.70;;
66542;SDS011;53395;37.360;-122.046;2022-07-23T16:00:44;11.90;;;5.40;;
66542;SDS011;53395;37.360;-122.046;2022-07-23T16:03:10;16.42;;;5.85;;
66542;SDS011;53395;37.360;-122.046;2022-07-23T16:05:36;15.80;;;5.28;;
66542;SDS011;53395;37.360;-122.046;2022-07-23T16:08:03;16.42;;;5.78;;
66542;SDS011;53395;37.360;-122.046;2022-07-23T16:10:30;15.90;;;5.45;;
66542;SDS011;53395;37.360;-122.046;2022-07-23T16:15:22;11.13;;;5.30;;
66542;SDS011;53395;37.360;-122.046;2022-07-23T16:17:49;16.85;;;5.72;;
66542;SDS011;53395;37.360;-122.046;2022-07-23T16:20:15;13.73;;;6.45;;
66542;SDS011;53395;37.360;-122.046;2022-07-23T16:25:08;13.07;;;4.72;;
66542;SDS011;53395;37.360;-122.046;2022-07-23T16:27:35;15.77;;;6.00;;
66542;SDS011;53395;37.360;-122.046;2022-07-23T16:30:03;12.43;;;4.70;;
66542;SDS011;53395;37.360;-122.046;2022-07-23T16:32:31;10.63;;;4.50;;
66542;SDS011;53395;37.360;-122.046;2022-07-23T16:34:57;12.52;;;5.35;;
66542;SDS011;53395;37.360;-122.046;2022-07-23T16:37:24;11.80;;;5.18;;
66542;SDS011;53395;37.360;-122.046;2022-07-23T16:39:50;17.27;;;5.57;;
66542;SDS011;53395;37.360;-122.046;2022-07-23T16:42:16;14.23;;;4.40;;